Time;durP1;ratioP1;P1;durP2;ratioP2;P2;SDS_P1;SDS_P2;PMS_P1;PMS_P2;Temp;Humidity;BMP_temperature;BMP_pressure;BME280_temperature;BME280_humidity;BME280_pressure;Samples;Min_cycle;Max_cycle;Signal;HPM_P1;HPM_P2
2023/07/29 00:01:41;;;;;;;2.58;2.38;;;17.20;99.90;;;;;;5050678;28;20292;-30
2023/07/29 00:04:08;;;;;;;3.97;2.40;;;17.20;99.90;;;;;;5034378;28;20194;-30
2023/07/29 00:06:35;;;;;;;3.88;2.63;;;17.20;99.90;;;;;;5049655;28;20272;-33
2023/07/29 00:09:01;;;;;;;2.88;2.25;;;17.20;99.90;;;;;;5053507;28;20236;-31
2023/07/29 00:11:27;;;;;;;6.20;3.15;;;17.30;99.90;;;;;;5053759;28;20192;-31
2023/07/29 00:13:54;;;;;;;3.55;2.60;;;17.30;99.90;;;;;;5069887;28;20181;-31
2023/07/29 00:16:22;;;;;;;2.58;2.38;;;17.30;99.90;;;;;;5036464;28;20203;-30
2023/07/29 00:18:49;;;;;;;2.47;2.28;;;17.30;99.90;;;;;;5050557;28;20202;-30
2023/07/29 00:21:15;;;;;;;2.30;2.10;;;17.30;99.90;;;;;;5046804;28;20213;-31
2023/07/29 00:23:41;;;;;;;3.58;2.28;;;17.30;99.90;;;;;;5053635;28;20268;-30
2023/07/29 00:26:06;;;;;;;2.75;2.40;;;17.30;99.90;;;;;;5038681;28;20209;-31
2023/07/29 00:28:32;;;;;;;4.20;2.65;;;17.30;99.90;;;;;;5065370;28;20204;-30
2023/07/29 00:30:58;;;;;;;2.97;2.58;;;17.30;99.90;;;;;;5041764;28;20178;-31
2023/07/29 00:33:24;;;;;;;2.33;2.13;;;17.30;99.90;;;;;;5033738;28;20193;-31
2023/07/29 00:35:50;;;;;;;2.67;2.22;;;17.30;99.90;;;;;;5050138;28;20220;-31
2023/07/29 00:38:16;;;;;;;3.58;2.35;;;17.30;99.90;;;;;;5050096;28;20223;-31
2023/07/29 00:40:43;;;;;;;3.78;2.13;;;17.40;99.90;;;;;;5033436;28;20224;-31
2023/07/29 00:43:08;;;;;;;3.88;2.05;;;17.40;99.90;;;;;;5049818;28;20248;-31
2023/07/29 00:45:35;;;;;;;2.10;1.90;;;17.30;99.90;;;;;;5049809;28;20178;-30
2023/07/29 00:48:02;;;;;;;3.42;2.10;;;17.30;99.90;;;;;;5051972;28;20185;-31
2023/07/29 00:50:30;;;;;;;3.05;2.10;;;17.30;99.90;;;;;;5047169;28;20206;-31
2023/07/29 00:52:56;;;;;;;2.10;2.00;;;17.30;99.90;;;;;;5050914;28;20658;-33
2023/07/29 00:55:23;;;;;;;2.10;1.90;;;17.40;99.90;;;;;;5040857;28;20201;-30
2023/07/29 00:57:53;;;;;;;3.25;2.35;;;17.30;99.90;;;;;;5063445;28;20197;-34
2023/07/29 01:00:19;;;;;;;2.45;2.10;;;17.30;99.90;;;;;;5049561;28;20205;-30
2023/07/29 01:02:44;;;;;;;2.80;2.30;;;17.30;99.90;;;;;;5049469;28;20217;-37
2023/07/29 01:05:14;;;;;;;3.55;2.10;;;17.30;99.90;;;;;;5025959;28;20171;-30
2023/07/29 01:08:08;;;;;;;5.30;2.70;;;17.30;99.90;;;;;;5049452;28;20188;-32
2023/07/29 01:10:48;;;;;;;4.22;3.10;;;17.30;99.90;;;;;;5059785;28;20216;-35
2023/07/29 01:13:21;;;;;;;6.05;3.17;;;17.30;99.90;;;;;;5044613;28;20204;-30
2023/07/29 01:16:13;;;;;;;3.45;2.95;;;17.30;99.90;;;;;;5052105;28;20325;-31
2023/07/29 01:18:39;;;;;;;3.60;3.25;;;17.30;99.90;;;;;;5048629;28;20326;-32
2023/07/29 01:21:08;;;;;;;3.75;3.00;;;17.30;99.90;;;;;;5049536;28;20189;-31
2023/07/29 01:23:35;;;;;;;2.50;2.28;;;17.30;99.90;;;;;;5047376;28;20188;-31
2023/07/29 01:26:03;;;;;;;7.57;4.20;;;17.20;99.90;;;;;;5047409;28;20173;-30
2023/07/29 01:28:30;;;;;;;7.22;3.97;;;17.20;99.90;;;;;;5053569;28;20196;-30
2023/07/29 01:31:22;;;;;;;5.88;4.05;;;17.20;99.90;;;;;;5046065;28;20237;-33
2023/07/29 01:34:26;;;;;;;5.18;3.85;;;17.20;99.90;;;;;;5056841;28;20190;-31
2023/07/29 01:36:54;;;;;;;5.53;3.50;;;17.20;99.90;;;;;;5038558;28;20255;-30
2023/07/29 01:39:24;;;;;;;4.95;3.90;;;17.10;99.90;;;;;;5073527;28;20209;-31
2023/07/29 01:41:51;;;;;;;5.30;4.70;;;17.10;99.90;;;;;;5048129;28;20209;-32
2023/07/29 01:44:18;;;;;;;5.95;4.63;;;17.10;99.90;;;;;;5044406;28;20178;-34
2023/07/29 01:46:44;;;;;;;5.97;4.70;;;17.10;99.90;;;;;;5053678;28;20174;-30
2023/07/29 01:49:10;;;;;;;8.00;5.10;;;17.10;99.90;;;;;;5045193;28;20235;-31
2023/07/29 01:51:36;;;;;;;7.75;4.97;;;17.10;99.90;;;;;;5044616;28;20277;-32
2023/07/29 01:54:02;;;;;;;6.95;5.07;;;17.20;99.90;;;;;;5053069;28;20185;-31
2023/07/29 01:56:28;;;;;;;6.45;5.63;;;17.20;99.90;;;;;;5036388;28;20182;-30
2023/07/29 01:58:56;;;;;;;8.07;5.10;;;17.20;99.90;;;;;;5044774;28;20202;-31
2023/07/29 02:01:22;;;;;;;6.47;4.90;;;17.20;99.90;;;;;;5044688;28;20269;-31
2023/07/29 02:03:54;;;;;;;5.55;4.20;;;17.20;99.90;;;;;;5045848;28;20273;-30
2023/07/29 02:06:20;;;;;;;4.80;4.35;;;17.20;99.90;;;;;;5049786;28;20177;-30
2023/07/29 02:08:46;;;;;;;4.28;3.88;;;17.10;99.90;;;;;;5063994;28;20205;-32
2023/07/29 02:11:12;;;;;;;5.82;4.35;;;17.10;99.90;;;;;;5055516;28;20185;-30
2023/07/29 02:13:38;;;;;;;5.85;3.63;;;17.00;99.90;;;;;;5057604;28;20221;-31
2023/07/29 02:16:04;;;;;;;3.85;3.45;;;17.00;99.90;;;;;;5054077;28;20189;-31
2023/07/29 02:18:29;;;;;;;6.38;3.70;;;17.00;99.90;;;;;;5048722;28;20227;-31
2023/07/29 02:20:55;;;;;;;5.43;3.90;;;17.00;99.90;;;;;;5039362;28;20241;-31
2023/07/29 02:23:21;;;;;;;5.57;3.35;;;17.00;99.90;;;;;;5043640;28;20217;-32
2023/07/29 02:25:47;;;;;;;3.53;2.80;;;17.00;99.90;;;;;;5039981;28;20240;-30
2023/07/29 02:28:13;;;;;;;4.20;3.10;;;17.00;99.90;;;;;;5055567;28;20189;-31
2023/07/29 02:30:44;;;;;;;5.35;3.30;;;17.00;99.90;;;;;;5045686;28;20214;-31
2023/07/29 02:33:10;;;;;;;5.47;2.72;;;17.00;99.90;;;;;;5052538;28;20213;-30
2023/07/29 02:35:36;;;;;;;3.25;2.72;;;16.90;99.90;;;;;;5043476;28;20202;-39
2023/07/29 02:38:02;;;;;;;3.10;2.90;;;16.90;99.90;;;;;;5059883;28;20185;-32
2023/07/29 02:40:29;;;;;;;5.75;3.33;;;16.90;99.90;;;;;;5040683;28;20213;-32
2023/07/29 02:42:55;;;;;;;7.05;3.17;;;16.90;99.90;;;;;;5060759;28;20296;-31
2023/07/29 02:45:20;;;;;;;8.77;3.20;;;16.90;99.90;;;;;;5055142;28;20267;-32
2023/07/29 02:47:46;;;;;;;4.10;3.22;;;16.90;99.90;;;;;;5054980;28;20185;-38
2023/07/29 02:50:12;;;;;;;7.40;3.55;;;16.80;99.90;;;;;;5044688;28;20284;-32
2023/07/29 02:52:38;;;;;;;4.65;3.50;;;16.80;99.90;;;;;;5049702;28;20185;-30
2023/07/29 02:55:05;;;;;;;4.57;3.30;;;16.90;99.90;;;;;;5064868;28;20645;-30
2023/07/29 02:57:30;;;;;;;3.60;3.30;;;16.90;99.90;;;;;;5051533;28;20186;-31
2023/07/29 02:59:56;;;;;;;6.15;3.70;;;16.90;99.90;;;;;;5051988;28;20219;-31
2023/07/29 03:02:22;;;;;;;6.55;4.00;;;16.90;99.90;;;;;;5047787;28;20292;-32
2023/07/29 03:04:48;;;;;;;5.05;3.80;;;17.00;99.90;;;;;;5054594;28;20178;-32
2023/07/29 03:07:14;;;;;;;4.60;4.15;;;17.00;99.90;;;;;;5071819;28;20200;-31
2023/07/29 03:09:41;;;;;;;4.55;4.07;;;17.00;99.90;;;;;;5040397;28;20190;-31
2023/07/29 03:12:08;;;;;;;3.92;3.60;;;17.00;99.90;;;;;;5053731;28;20189;-31
2023/07/29 03:14:34;;;;;;;4.07;3.50;;;17.00;99.90;;;;;;5046460;28;20212;-31
2023/07/29 03:17:06;;;;;;;4.57;3.97;;;17.00;99.90;;;;;;5037393;28;20216;-32
2023/07/29 03:19:32;;;;;;;4.35;3.90;;;17.00;99.90;;;;;;5048443;28;20204;-35
2023/07/29 03:21:58;;;;;;;4.00;3.60;;;16.90;99.90;;;;;;5054076;28;20205;-31
2023/07/29 03:24:24;;;;;;;4.43;3.95;;;16.90;99.90;;;;;;5041097;28;20222;-31
2023/07/29 03:26:50;;;;;;;3.92;3.55;;;16.90;99.90;;;;;;5051023;28;20276;-32
2023/07/29 03:29:15;;;;;;;4.03;3.72;;;16.90;99.90;;;;;;5062218;28;20213;-30
2023/07/29 03:31:41;;;;;;;5.35;3.97;;;16.90;99.90;;;;;;5054747;28;20181;-31
2023/07/29 03:34:07;;;;;;;4.82;3.63;;;16.90;99.90;;;;;;5052375;28;20181;-30
2023/07/29 03:36:34;;;;;;;4.53;4.05;;;16.90;99.90;;;;;;5051091;28;20189;-31
2023/07/29 03:39:03;;;;;;;4.10;3.70;;;16.90;99.90;;;;;;5051654;28;20205;-30
2023/07/29 03:41:29;;;;;;;4.65;3.85;;;16.90;99.90;;;;;;5046570;28;20288;-33
2023/07/29 03:43:54;;;;;;;5.18;4.10;;;16.90;99.90;;;;;;5050883;28;20216;-31
2023/07/29 03:46:22;;;;;;;5.45;4.20;;;16.80;99.90;;;;;;5050533;28;20201;-30
2023/07/29 03:48:48;;;;;;;4.88;4.30;;;16.90;99.90;;;;;;5049733;28;20201;-31
2023/07/29 03:51:14;;;;;;;4.75;4.03;;;16.90;99.90;;;;;;5054086;28;20222;-30
2023/07/29 03:53:39;;;;;;;5.15;4.00;;;16.90;99.90;;;;;;5054185;28;20177;-32
2023/07/29 03:56:05;;;;;;;6.25;4.10;;;16.90;99.90;;;;;;5048413;28;20190;-30
2023/07/29 03:58:31;;;;;;;4.38;3.80;;;16.80;99.90;;;;;;5041757;28;20185;-31
2023/07/29 04:00:57;;;;;;;5.05;3.58;;;16.80;99.90;;;;;;5050910;28;20179;-34
2023/07/29 04:03:23;;;;;;;4.97;4.30;;;16.80;99.90;;;;;;5054164;28;20188;-31
2023/07/29 04:05:51;;;;;;;6.90;5.68;;;16.80;99.90;;;;;;5046729;28;20178;-30
2023/07/29 04:08:18;;;;;;;12.20;5.65;;;16.80;99.90;;;;;;5044468;28;20222;-31
2023/07/29 04:10:44;;;;;;;6.28;4.93;;;16.80;99.90;;;;;;5054285;28;20208;-31
2023/07/29 04:13:11;;;;;;;7.38;4.40;;;16.80;99.90;;;;;;5041429;28;20190;-33
2023/07/29 04:15:37;;;;;;;4.95;4.45;;;16.80;99.90;;;;;;5050283;28;20208;-35
2023/07/29 04:18:03;;;;;;;4.30;3.90;;;16.80;99.90;;;;;;5050402;28;20181;-31
2023/07/29 04:20:29;;;;;;;5.13;4.38;;;16.80;99.90;;;;;;5038838;28;20234;-31
2023/07/29 04:22:55;;;;;;;5.07;3.70;;;16.80;99.90;;;;;;5050157;28;20209;-30
2023/07/29 04:25:20;;;;;;;4.50;4.10;;;16.80;99.90;;;;;;5043634;28;20260;-30
2023/07/29 04:27:46;;;;;;;3.80;3.50;;;16.80;99.90;;;;;;5041416;28;20186;-32
2023/07/29 04:30:12;;;;;;;3.53;3.25;;;16.80;99.90;;;;;;5050149;28;20201;-32
2023/07/29 04:32:38;;;;;;;3.17;2.97;;;16.80;99.90;;;;;;5047075;28;20189;-30
2023/07/29 04:35:07;;;;;;;3.65;3.30;;;16.80;99.90;;;;;;5053794;28;20185;-31
2023/07/29 04:37:36;;;;;;;3.30;3.00;;;16.80;99.90;;;;;;5065385;28;20253;-31
2023/07/29 04:40:02;;;;;;;3.85;3.55;;;16.90;99.90;;;;;;5049765;28;20347;-31
2023/07/29 04:42:28;;;;;;;3.70;3.35;;;16.90;99.90;;;;;;5033404;28;20236;-31
2023/07/29 04:44:54;;;;;;;4.57;3.78;;;16.80;99.90;;;;;;5040652;28;20201;-31
2023/07/29 04:47:19;;;;;;;7.35;4.53;;;16.80;99.90;;;;;;5041798;28;20232;-31
2023/07/29 04:49:45;;;;;;;7.30;4.82;;;16.80;99.90;;;;;;5041493;28;20198;-32
2023/07/29 04:52:11;;;;;;;6.40;3.45;;;16.80;99.90;;;;;;5051014;28;20173;-32
2023/07/29 04:54:38;;;;;;;5.57;3.20;;;16.80;99.90;;;;;;5048156;28;20185;-32
2023/07/29 04:57:04;;;;;;;8.30;2.97;;;16.80;99.90;;;;;;5042997;28;20190;-32
2023/07/29 04:59:30;;;;;;;5.32;2.90;;;16.90;99.90;;;;;;5044963;28;20296;-31
2023/07/29 05:01:55;;;;;;;5.82;2.80;;;16.90;99.90;;;;;;5052384;28;20304;-29
2023/07/29 05:04:21;;;;;;;4.35;2.50;;;17.00;99.90;;;;;;5042635;28;20185;-30
2023/07/29 05:06:48;;;;;;;3.90;2.28;;;17.00;99.90;;;;;;5048804;28;20181;-30
2023/07/29 05:09:19;;;;;;;3.60;2.38;;;17.10;99.90;;;;;;5049890;28;20216;-31
2023/07/29 05:11:46;;;;;;;3.55;2.30;;;17.20;99.90;;;;;;5050104;28;20759;-36
2023/07/29 05:14:17;;;;;;;4.00;2.80;;;17.20;99.90;;;;;;5025364;28;20665;-30
2023/07/29 05:16:44;;;;;;;6.05;3.10;;;17.30;99.90;;;;;;5034019;28;20259;-31
2023/07/29 05:19:10;;;;;;;5.43;3.30;;;17.30;99.90;;;;;;5032190;28;20197;-33
2023/07/29 05:21:37;;;;;;;4.90;3.17;;;17.40;99.90;;;;;;5039177;28;20286;-35
2023/07/29 05:24:03;;;;;;;5.68;2.80;;;17.40;99.90;;;;;;5036355;28;20178;-31
2023/07/29 05:26:29;;;;;;;4.05;2.70;;;17.40;99.90;;;;;;5048828;28;20345;-31
2023/07/29 05:28:55;;;;;;;3.38;2.88;;;17.50;99.90;;;;;;5048982;28;20297;-31
2023/07/29 05:31:22;;;;;;;5.47;3.05;;;17.50;99.90;;;;;;5058659;28;20177;-32
2023/07/29 05:33:48;;;;;;;2.67;2.20;;;17.40;99.90;;;;;;5048431;28;20182;-32
2023/07/29 05:36:15;;;;;;;3.20;2.70;;;17.50;99.90;;;;;;5034672;28;20227;-32
2023/07/29 05:38:42;;;;;;;3.72;2.95;;;17.50;99.90;;;;;;5038170;28;20193;-32
2023/07/29 05:41:08;;;;;;;4.03;2.58;;;17.50;99.90;;;;;;5029104;28;20175;-30
2023/07/29 05:43:34;;;;;;;3.83;2.90;;;17.50;99.90;;;;;;5043981;28;20169;-31
2023/07/29 05:45:59;;;;;;;3.35;2.50;;;17.60;99.90;;;;;;5069357;28;20177;-32
2023/07/29 05:48:25;;;;;;;3.80;2.58;;;17.70;99.90;;;;;;5069280;28;20186;-31
2023/07/29 05:50:52;;;;;;;5.30;2.72;;;17.70;99.90;;;;;;5052605;28;20170;-32
2023/07/29 05:53:18;;;;;;;5.82;2.70;;;17.70;99.90;;;;;;5043727;28;20181;-30
2023/07/29 05:55:49;;;;;;;5.28;2.70;;;17.80;99.90;;;;;;5055377;28;20178;-36
2023/07/29 05:58:16;;;;;;;4.20;2.40;;;17.80;99.90;;;;;;5056129;28;20201;-30
2023/07/29 06:00:42;;;;;;;2.58;2.38;;;17.90;99.90;;;;;;5040220;28;20182;-30
2023/07/29 06:03:08;;;;;;;3.10;2.67;;;17.90;99.90;;;;;;5040660;28;20217;-31
2023/07/29 06:05:33;;;;;;;5.72;2.20;;;18.00;99.90;;;;;;5044204;28;20197;-31
2023/07/29 06:07:59;;;;;;;3.75;2.30;;;18.00;99.90;;;;;;5033081;28;20269;-32
2023/07/29 06:10:25;;;;;;;4.32;2.40;;;18.00;99.90;;;;;;5047058;28;20305;-33
2023/07/29 06:12:51;;;;;;;4.85;2.40;;;18.10;99.90;;;;;;5050022;28;20264;-32
2023/07/29 06:15:17;;;;;;;4.78;2.58;;;18.10;99.90;;;;;;5042216;28;20201;-30
2023/07/29 06:17:43;;;;;;;4.85;2.90;;;18.20;99.90;;;;;;5049047;28;20177;-30
2023/07/29 06:20:09;;;;;;;3.10;2.55;;;18.20;99.90;;;;;;5055962;28;20226;-31
2023/07/29 06:22:35;;;;;;;2.90;2.60;;;18.20;99.90;;;;;;5052748;28;20297;-33
2023/07/29 06:25:01;;;;;;;4.40;3.08;;;18.30;99.90;;;;;;5035739;28;20273;-31
2023/07/29 06:27:27;;;;;;;3.60;2.70;;;18.20;99.90;;;;;;5052132;28;20227;-30
2023/07/29 06:29:52;;;;;;;4.95;2.80;;;18.30;99.90;;;;;;5050313;28;20319;-31
2023/07/29 06:32:18;;;;;;;3.85;2.75;;;18.30;99.90;;;;;;5072415;28;20185;-31
2023/07/29 06:34:44;;;;;;;3.00;2.67;;;18.30;99.90;;;;;;5059322;28;20193;-31
2023/07/29 06:37:10;;;;;;;2.50;2.30;;;18.40;99.90;;;;;;5052367;28;20185;-32
2023/07/29 06:39:36;;;;;;;4.28;2.78;;;18.40;99.90;;;;;;5055466;28;20347;-31
2023/07/29 06:42:02;;;;;;;6.57;2.80;;;18.40;99.90;;;;;;5056117;28;20201;-31
2023/07/29 06:44:27;;;;;;;3.08;2.47;;;18.40;99.90;;;;;;5054035;28;20224;-35
2023/07/29 06:46:53;;;;;;;4.15;2.85;;;18.40;99.90;;;;;;5058015;28;20175;-32
2023/07/29 06:49:19;;;;;;;4.80;3.25;;;18.30;99.90;;;;;;5052949;28;20348;-31
2023/07/29 06:51:45;;;;;;;6.68;2.97;;;18.20;99.90;;;;;;5072006;28;20178;-30
2023/07/29 06:54:13;;;;;;;4.53;2.70;;;18.20;99.90;;;;;;5039969;28;20188;-32
2023/07/29 06:56:43;;;;;;;5.20;2.92;;;18.20;99.90;;;;;;5034367;28;20182;-30
2023/07/29 06:59:09;;;;;;;3.40;3.05;;;18.10;99.90;;;;;;5053329;28;20197;-32
2023/07/29 07:01:35;;;;;;;4.38;3.03;;;18.10;99.90;;;;;;5036508;28;20276;-30
2023/07/29 07:04:01;;;;;;;4.40;3.08;;;18.10;99.90;;;;;;5051008;28;20228;-30
2023/07/29 07:06:27;;;;;;;4.85;2.80;;;18.10;99.90;;;;;;5053813;28;20182;-33
2023/07/29 07:08:53;;;;;;;5.07;3.03;;;18.10;99.90;;;;;;5052023;28;20213;-32
2023/07/29 07:11:19;;;;;;;4.65;3.10;;;18.10;99.90;;;;;;5035083;28;20178;-31
2023/07/29 07:13:45;;;;;;;5.50;2.80;;;18.20;99.90;;;;;;5069737;28;20184;-33
2023/07/29 07:16:10;;;;;;;5.10;2.88;;;18.20;99.90;;;;;;5052855;28;20220;-31
2023/07/29 07:18:36;;;;;;;3.95;3.05;;;18.20;99.90;;;;;;5046894;28;20205;-33
2023/07/29 07:21:03;;;;;;;3.60;2.95;;;18.30;99.90;;;;;;5050609;28;20178;-32
2023/07/29 07:23:28;;;;;;;3.13;2.42;;;18.30;99.90;;;;;;5040527;28;20214;-31
2023/07/29 07:25:54;;;;;;;5.32;3.05;;;18.40;99.90;;;;;;5034538;28;20232;-33
2023/07/29 07:28:20;;;;;;;4.57;2.63;;;18.50;99.90;;;;;;5051339;28;20181;-31
2023/07/29 07:30:46;;;;;;;3.17;2.60;;;18.50;99.90;;;;;;5047194;28;20235;-32
2023/07/29 07:33:11;;;;;;;4.72;3.17;;;18.60;99.90;;;;;;5054661;28;20185;-31
2023/07/29 07:35:37;;;;;;;3.35;2.90;;;18.70;99.90;;;;;;5071344;28;20209;-33
2023/07/29 07:38:04;;;;;;;6.30;3.35;;;18.80;99.90;;;;;;5054488;28;20173;-31
2023/07/29 07:40:33;;;;;;;3.85;3.15;;;18.90;99.90;;;;;;5034344;28;20721;-32
2023/07/29 07:42:59;;;;;;;5.75;3.38;;;19.00;99.90;;;;;;5042400;28;20217;-32
2023/07/29 07:45:25;;;;;;;5.22;2.90;;;19.00;99.90;;;;;;5052604;28;20190;-32
2023/07/29 07:47:53;;;;;;;5.57;3.25;;;19.00;99.90;;;;;;5046033;28;20215;-31
2023/07/29 07:50:19;;;;;;;5.80;3.53;;;19.00;99.90;;;;;;5070531;28;20193;-31
2023/07/29 07:52:45;;;;;;;4.70;3.00;;;19.00;99.90;;;;;;5044141;28;20177;-33
2023/07/29 07:55:11;;;;;;;4.88;4.03;;;19.10;99.90;;;;;;5042863;28;20204;-32
2023/07/29 07:57:37;;;;;;;6.20;3.80;;;19.10;99.90;;;;;;5050782;28;20185;-34
2023/07/29 08:00:04;;;;;;;7.40;4.10;;;19.20;99.90;;;;;;5036836;28;20320;-33
2023/07/29 08:02:39;;;;;;;4.00;2.85;;;19.30;99.90;;;;;;5048892;28;20239;-40
2023/07/29 08:05:06;;;;;;;3.30;3.00;;;19.30;99.90;;;;;;5048511;28;20174;-36
2023/07/29 08:07:34;;;;;;;4.57;3.13;;;19.40;99.90;;;;;;5034155;28;20272;-33
2023/07/29 08:10:00;;;;;;;4.03;3.10;;;19.40;99.90;;;;;;5053953;28;20723;-32
2023/07/29 08:12:26;;;;;;;3.55;3.20;;;19.40;99.90;;;;;;5037367;28;20213;-31
2023/07/29 08:14:52;;;;;;;3.20;2.88;;;19.40;99.90;;;;;;5036917;28;20189;-31
2023/07/29 08:17:18;;;;;;;4.18;2.85;;;19.40;99.90;;;;;;5051242;28;20272;-33
2023/07/29 08:19:44;;;;;;;5.25;3.40;;;19.40;99.90;;;;;;5054042;28;20219;-31
2023/07/29 08:22:10;;;;;;;3.95;3.03;;;19.40;99.90;;;;;;5046840;28;20229;-31
2023/07/29 08:24:36;;;;;;;4.38;3.33;;;19.50;99.90;;;;;;5061055;28;20224;-31
2023/07/29 08:27:02;;;;;;;4.70;2.85;;;19.60;99.90;;;;;;5045824;28;20204;-31
2023/07/29 08:29:28;;;;;;;3.08;2.60;;;19.60;99.90;;;;;;5057258;28;20301;-31
2023/07/29 08:31:55;;;;;;;4.00;1.98;;;19.70;99.90;;;;;;5043878;28;20273;-31
2023/07/29 08:34:21;;;;;;;2.35;2.10;;;19.70;99.90;;;;;;5040942;28;20189;-30
2023/07/29 08:36:47;;;;;;;2.35;2.13;;;19.80;99.90;;;;;;5032293;28;20178;-30
2023/07/29 08:39:12;;;;;;;3.33;2.17;;;19.80;99.90;;;;;;5061865;28;20232;-31
2023/07/29 08:42:05;;;;;;;3.80;2.50;;;19.90;99.90;;;;;;5051207;28;20209;-32
2023/07/29 08:44:40;;;;;;;2.95;2.33;;;20.00;99.90;;;;;;5034762;28;20181;-31
2023/07/29 08:47:06;;;;;;;3.05;2.63;;;20.20;99.90;;;;;;5040847;28;20183;-31
2023/07/29 08:49:32;;;;;;;3.33;2.35;;;20.40;99.90;;;;;;5046326;28;20269;-31
2023/07/29 08:51:59;;;;;;;2.60;2.40;;;20.50;99.90;;;;;;5041206;28;20185;-32
2023/07/29 08:54:25;;;;;;;2.67;2.20;;;20.70;99.90;;;;;;5057225;28;20181;-31
2023/07/29 08:56:51;;;;;;;2.70;2.03;;;20.90;99.90;;;;;;5048521;28;20197;-32
2023/07/29 08:59:17;;;;;;;3.65;2.03;;;21.20;99.90;;;;;;5050412;28;20293;-34
2023/07/29 09:01:43;;;;;;;3.25;2.15;;;21.40;99.90;;;;;;5039070;28;20292;-31
2023/07/29 09:04:09;;;;;;;2.40;2.20;;;21.60;99.90;;;;;;5064989;28;20244;-33
2023/07/29 09:06:38;;;;;;;3.08;2.25;;;21.60;99.90;;;;;;5064875;28;20182;-35
2023/07/29 09:09:05;;;;;;;4.18;2.20;;;21.80;99.90;;;;;;5039000;28;20301;-32
2023/07/29 09:11:32;;;;;;;2.63;2.42;;;21.90;99.90;;;;;;5057581;28;20186;-31
2023/07/29 09:13:58;;;;;;;3.30;2.35;;;22.10;99.90;;;;;;5051957;28;20178;-31
2023/07/29 09:16:24;;;;;;;2.85;2.03;;;22.30;99.90;;;;;;5049018;28;20201;-31
2023/07/29 09:18:51;;;;;;;1.95;1.85;;;22.40;99.90;;;;;;5045163;28;20197;-32
2023/07/29 09:21:22;;;;;;;3.17;2.42;;;22.50;99.90;;;;;;5044299;28;20203;-32
2023/07/29 09:23:50;;;;;;;3.20;2.25;;;22.60;99.90;;;;;;5037334;28;20229;-32
2023/07/29 09:26:26;;;;;;;2.40;2.10;;;22.60;99.90;;;;;;5057665;28;20185;-33
2023/07/29 09:28:57;;;;;;;2.78;2.03;;;22.70;99.90;;;;;;5049978;28;20205;-32
2023/07/29 09:31:24;;;;;;;3.17;2.42;;;22.80;99.90;;;;;;5056208;28;20193;-31
2023/07/29 09:33:57;;;;;;;2.97;2.00;;;23.00;99.90;;;;;;5045288;28;20192;-32
2023/07/29 09:36:23;;;;;;;2.60;2.40;;;23.10;99.90;;;;;;5044533;28;20196;-31
2023/07/29 09:38:55;;;;;;;2.22;2.05;;;23.30;99.90;;;;;;5029936;28;20201;-31
2023/07/29 09:41:25;;;;;;;3.67;2.20;;;23.60;99.90;;;;;;5047609;28;20224;-31
2023/07/29 09:43:59;;;;;;;2.47;1.88;;;23.60;99.90;;;;;;5060997;28;20174;-32
2023/07/29 09:46:31;;;;;;;2.42;2.22;;;23.70;99.90;;;;;;5029115;28;20213;-34
2023/07/29 09:48:57;;;;;;;2.97;1.92;;;23.80;99.90;;;;;;5041093;28;20215;-32
2023/07/29 09:51:23;;;;;;;4.65;2.03;;;23.80;99.90;;;;;;5048295;28;20178;-32
2023/07/29 09:53:51;;;;;;;2.35;2.15;;;23.80;99.90;;;;;;5040995;28;20178;-32
2023/07/29 09:56:17;;;;;;;3.22;2.40;;;23.70;99.90;;;;;;5057056;28;20269;-32
2023/07/29 09:58:45;;;;;;;3.03;2.13;;;23.90;99.90;;;;;;5060732;28;20205;-33
2023/07/29 10:01:12;;;;;;;2.45;2.13;;;24.00;99.90;;;;;;5060099;28;20685;-33
2023/07/29 10:03:38;;;;;;;2.33;2.13;;;24.10;99.90;;;;;;5043609;28;20216;-32
2023/07/29 10:06:05;;;;;;;2.20;1.95;;;24.10;99.90;;;;;;5072629;28;20173;-37
2023/07/29 10:08:40;;;;;;;2.47;2.05;;;24.20;99.90;;;;;;5055812;28;20235;-31
2023/07/29 10:11:08;;;;;;;2.13;2.00;;;24.20;99.90;;;;;;5059326;28;20351;-32
2023/07/29 10:13:34;;;;;;;2.30;2.10;;;24.30;99.90;;;;;;5055053;28;20187;-31
2023/07/29 10:16:03;;;;;;;2.40;2.20;;;24.40;99.90;;;;;;5048712;28;20192;-33
2023/07/29 10:18:31;;;;;;;2.20;1.98;;;24.50;99.90;;;;;;5055899;28;20192;-31
2023/07/29 10:20:58;;;;;;;2.90;2.33;;;24.30;99.90;;;;;;5040954;28;20247;-33
2023/07/29 10:23:30;;;;;;;2.50;2.30;;;24.40;99.90;;;;;;5051845;28;20202;-31
2023/07/29 10:26:04;;;;;;;2.92;2.25;;;24.40;99.90;;;;;;5057670;28;20213;-32
2023/07/29 10:28:32;;;;;;;2.83;2.38;;;24.50;99.90;;;;;;5041704;28;20178;-31
2023/07/29 10:30:59;;;;;;;3.10;2.30;;;24.40;99.90;;;;;;5035947;28;20193;-31
2023/07/29 10:33:26;;;;;;;3.42;2.33;;;24.30;99.90;;;;;;5039329;28;20181;-33
2023/07/29 10:35:53;;;;;;;2.72;2.53;;;24.60;99.90;;;;;;5052102;28;20232;-33
2023/07/29 10:38:24;;;;;;;2.10;2.00;;;25.10;99.90;;;;;;5051748;28;20224;-31
2023/07/29 10:40:52;;;;;;;2.90;2.20;;;25.20;99.90;;;;;;5036351;28;20205;-33
2023/07/29 10:43:24;;;;;;;3.28;2.22;;;25.10;99.90;;;;;;5041697;28;20251;-31
2023/07/29 10:45:50;;;;;;;2.30;2.10;;;25.10;99.90;;;;;;5035514;28;20241;-33
2023/07/29 10:48:37;;;;;;;3.95;2.13;;;24.70;99.90;;;;;;5050393;28;20189;-32
2023/07/29 10:51:32;;;;;;;3.55;2.30;;;24.60;99.90;;;;;;5041575;28;20204;-32
2023/07/29 10:54:11;;;;;;;2.60;2.10;;;24.70;99.90;;;;;;5068134;28;20220;-34
2023/07/29 10:56:43;;;;;;;2.30;2.10;;;24.70;99.90;;;;;;5052053;28;20288;-32
2023/07/29 10:59:12;;;;;;;2.80;2.20;;;25.10;99.90;;;;;;5051180;28;20206;-32
2023/07/29 11:01:39;;;;;;;2.50;2.30;;;25.20;99.90;;;;;;5051947;28;20237;-32
2023/07/29 11:04:23;;;;;;;2.10;2.00;;;25.40;99.90;;;;;;5035198;28;20186;-34
2023/07/29 11:07:04;;;;;;;3.45;2.20;;;25.40;99.90;;;;;;5034816;28;20186;-32
2023/07/29 11:09:48;;;;;;;2.33;2.13;;;25.30;99.90;;;;;;5043389;28;20236;-35
2023/07/29 11:12:36;;;;;;;2.25;2.05;;;25.10;99.90;;;;;;5039894;28;20185;-33
2023/07/29 11:15:24;;;;;;;2.67;2.13;;;25.30;99.90;;;;;;5047737;28;20217;-35
2023/07/29 11:17:53;;;;;;;2.50;2.30;;;25.30;99.90;;;;;;5054507;28;20272;-32
2023/07/29 11:20:21;;;;;;;2.05;1.92;;;25.40;99.90;;;;;;5047924;28;20206;-35
2023/07/29 11:22:47;;;;;;;2.42;2.13;;;25.30;99.90;;;;;;5051240;28;20218;-40
2023/07/29 11:25:15;;;;;;;2.30;2.10;;;25.10;99.90;;;;;;5039393;28;20182;-32
2023/07/29 11:27:41;;;;;;;2.05;1.85;;;24.90;99.90;;;;;;5051530;28;20247;-33
2023/07/29 11:30:11;;;;;;;3.33;2.35;;;24.80;99.90;;;;;;5047785;28;20209;-31
2023/07/29 11:32:39;;;;;;;3.22;2.28;;;24.60;99.90;;;;;;5046615;28;20193;-32
2023/07/29 11:35:10;;;;;;;3.85;1.85;;;24.70;99.90;;;;;;5053112;28;20185;-32
2023/07/29 11:37:38;;;;;;;2.00;1.90;;;24.70;99.90;;;;;;5062316;28;20261;-32
2023/07/29 11:40:05;;;;;;;2.22;1.90;;;24.80;99.90;;;;;;5047140;28;20662;-32
2023/07/29 11:42:35;;;;;;;1.80;1.70;;;24.90;99.90;;;;;;5054381;28;20679;-31
2023/07/29 11:45:06;;;;;;;1.73;1.60;;;25.10;99.90;;;;;;5070878;28;20182;-32
2023/07/29 11:47:36;;;;;;;1.92;1.75;;;25.10;99.90;;;;;;5054738;28;20269;-31
2023/07/29 11:50:05;;;;;;;2.78;2.08;;;25.20;99.90;;;;;;5046980;28;20189;-31
2023/07/29 11:52:33;;;;;;;2.50;1.90;;;25.10;99.90;;;;;;5054277;28;20193;-32
2023/07/29 11:55:00;;;;;;;1.92;1.70;;;24.90;99.90;;;;;;5047922;28;20189;-31
2023/07/29 11:57:26;;;;;;;4.07;2.10;;;25.00;99.90;;;;;;5050277;28;20641;-32
2023/07/29 11:59:53;;;;;;;2.13;1.92;;;25.10;99.90;;;;;;5069726;28;20215;-31
2023/07/29 12:02:20;;;;;;;4.28;2.35;;;25.10;99.90;;;;;;5053830;28;20209;-32
2023/07/29 12:04:47;;;;;;;5.53;2.35;;;25.00;99.90;;;;;;5043719;28;20213;-32
2023/07/29 12:07:15;;;;;;;2.20;2.10;;;25.10;99.90;;;;;;5037243;28;20190;-32
2023/07/29 12:09:46;;;;;;;2.38;2.17;;;25.10;99.90;;;;;;5036072;28;20194;-31
2023/07/29 12:12:13;;;;;;;2.28;2.08;;;25.10;99.90;;;;;;5034611;28;20186;-32
2023/07/29 12:14:43;;;;;;;2.67;2.35;;;25.30;99.90;;;;;;5034270;28;20197;-33
2023/07/29 12:17:09;;;;;;;2.17;1.98;;;25.50;99.90;;;;;;5045784;28;20201;-32
2023/07/29 12:19:37;;;;;;;2.00;1.90;;;25.50;99.90;;;;;;5032851;28;20233;-34
2023/07/29 12:22:04;;;;;;;2.22;2.08;;;25.40;99.90;;;;;;5054294;28;20201;-32
2023/07/29 12:24:32;;;;;;;2.42;2.00;;;25.30;99.90;;;;;;5051027;28;20204;-32
2023/07/29 12:26:58;;;;;;;2.28;2.10;;;25.40;99.90;;;;;;5050005;28;20170;-32
2023/07/29 12:29:24;;;;;;;2.50;2.30;;;25.40;99.90;;;;;;5049315;28;20225;-32
2023/07/29 12:31:59;;;;;;;2.95;2.25;;;25.50;99.90;;;;;;5033179;28;20206;-32
2023/07/29 12:34:27;;;;;;;2.38;2.17;;;25.40;99.90;;;;;;5047680;28;20197;-32
2023/07/29 12:36:54;;;;;;;2.65;2.45;;;25.40;99.90;;;;;;5051956;28;20182;-32
2023/07/29 12:39:23;;;;;;;2.47;2.17;;;25.40;99.90;;;;;;5039513;28;20229;-33
2023/07/29 12:41:51;;;;;;;3.22;2.30;;;25.40;99.90;;;;;;5040208;28;20237;-32
2023/07/29 12:44:17;;;;;;;3.45;2.35;;;25.30;99.90;;;;;;5039195;28;20201;-33
2023/07/29 12:46:43;;;;;;;2.30;2.10;;;25.40;99.90;;;;;;5058124;28;20268;-33
2023/07/29 12:49:10;;;;;;;2.45;2.20;;;25.40;99.90;;;;;;5046116;28;20204;-32
2023/07/29 12:51:37;;;;;;;2.55;2.35;;;25.40;99.90;;;;;;5053042;28;20238;-32